Time;durP1;ratioP1;P1;durP2;ratioP2;P2;SDS_P1;SDS_P2;PMS_P1;PMS_P2;Temp;Humidity;BMP_temperature;BMP_pressure;BME280_temperature;BME280_humidity;BME280_pressure;Samples;Min_cycle;Max_cycle;Signal;HPM_P1;HPM_P2
2024/01/14 00:02:22;;;;;;;;;;;;;;;;;;5081602;28;19930;-78
2024/01/14 00:04:48;;;;;;;;;;;;;;;;;;5095183;28;19963;-78
2024/01/14 00:07:14;;;;;;;;;;;;;;;;;;5079821;28;19931;-77
2024/01/14 00:09:41;;;;;;;;;;;;;;;;;;5114148;28;19924;-78
2024/01/14 00:12:07;;;;;;;;;;;;;;;;;;5096692;28;19924;-78
2024/01/14 00:14:34;;;;;;;;;;;;;;;;;;5114457;28;19923;-78
2024/01/14 00:17:03;;;;;;;;;;;;;;;;;;5116705;28;19924;-76
2024/01/14 00:19:30;;;;;;;;;;;;;;;;;;5098085;28;19935;-78
2024/01/14 00:21:56;;;;;;;;;;;;;;;;;;5114181;28;19928;-76
2024/01/14 00:24:23;;;;;;;;;;;;;;;;;;5082889;28;19945;-79
2024/01/14 00:26:49;;;;;;;;;;;;;;;;;;5118827;27;19969;-76
2024/01/14 00:29:16;;;;;;;;;;;;;;;;;;5095668;28;19934;-78
2024/01/14 00:31:42;;;;;;;;;;;;;;;;;;5097684;28;19928;-78
2024/01/14 00:34:31;;;;;;;;;;;;;;;;;;5117174;28;20318;-77
2024/01/14 00:36:58;;;;;;;;;;;;;;;;;;5088173;28;20010;-79
2024/01/14 00:39:24;;;;;;;;;;;;;;;;;;5121885;27;19927;-76
2024/01/14 00:41:51;;;;;;;;;;;;;;;;;;5119556;27;19924;-79
2024/01/14 00:44:17;;;;;;;;;;;;;;;;;;5118697;27;20018;-76
2024/01/14 00:46:44;;;;;;;;;;;;;;;;;;5120773;27;20373;-76
2024/01/14 00:49:10;;;;;;;;;;;;;;;;;;5104460;27;19950;-76
2024/01/14 00:51:37;;;;;;;;;;;;;;;;;;5101696;27;19930;-78
2024/01/14 00:54:03;;;;;;;;;;;;;;;;;;5102980;27;20408;-78
2024/01/14 00:56:30;;;;;;;;;;;;;;;;;;5116168;27;19972;-78
2024/01/14 00:58:56;;;;;;;;;;;;;;;;;;5083159;28;19985;-78
2024/01/14 01:01:22;;;;;;;;;;;;;;;;;;5100664;27;20018;-78
2024/01/14 01:03:49;;;;;;;;;;;;;;;;;;5106092;28;20403;-77
2024/01/14 01:06:15;;;;;;;;;;;;;;;;;;5082361;28;20420;-78
2024/01/14 01:08:42;;;;;;;;;;;;;;;;;;5119500;27;19967;-80
2024/01/14 01:11:08;;;;;;;;;;;;;;;;;;5119496;27;20372;-77
2024/01/14 01:13:35;;;;;;;;;;;;;;;;;;5102229;28;19924;-77
2024/01/14 01:16:01;;;;;;;;;;;;;;;;;;5098505;28;19988;-76
2024/01/14 01:18:28;;;;;;;;;;;;;;;;;;5125447;27;20352;-78
2024/01/14 01:20:54;;;;;;;;;;;;;;;;;;5117837;27;20319;-78
2024/01/14 01:23:21;;;;;;;;;;;;;;;;;;5099594;27;19924;-77
2024/01/14 01:25:47;;;;;;;;;;;;;;;;;;5101051;27;19924;-79
2024/01/14 01:28:14;;;;;;;;;;;;;;;;;;5118110;27;19924;-77
2024/01/14 01:30:40;;;;;;;;;;;;;;;;;;5099866;28;20022;-78
2024/01/14 01:33:07;;;;;;;;;;;;;;;;;;5098757;28;20298;-79
2024/01/14 01:35:34;;;;;;;;;;;;;;;;;;5118661;27;19963;-78
2024/01/14 01:38:01;;;;;;;;;;;;;;;;;;5102917;27;19927;-78
2024/01/14 01:40:27;;;;;;;;;;;;;;;;;;5121040;27;20465;-78
2024/01/14 01:42:53;;;;;;;;;;;;;;;;;;5099599;27;20018;-77
2024/01/14 01:45:20;;;;;;;;;;;;;;;;;;5099642;28;20015;-78
2024/01/14 01:47:46;;;;;;;;;;;;;;;;;;5097372;28;19934;-77
2024/01/14 01:50:13;;;;;;;;;;;;;;;;;;5083548;27;19950;-77
2024/01/14 01:52:40;;;;;;;;;;;;;;;;;;5082002;28;19957;-75
2024/01/14 01:55:06;;;;;;;;;;;;;;;;;;5097973;27;20000;-77
2024/01/14 01:57:33;;;;;;;;;;;;;;;;;;5116910;27;20063;-77
2024/01/14 02:00:00;;;;;;;;;;;;;;;;;;5098825;27;19924;-77
2024/01/14 02:02:36;;;;;;;;;;;;;;;;;;5116957;27;19924;-77
2024/01/14 02:05:03;;;;;;;;;;;;;;;;;;5097018;28;19928;-79
2024/01/14 02:07:29;;;;;;;;;;;;;;;;;;5081972;27;20265;-77
2024/01/14 02:09:56;;;;;;;;;;;;;;;;;;5115426;27;20022;-80
2024/01/14 02:12:22;;;;;;;;;;;;;;;;;;5114500;27;19930;-77
2024/01/14 02:14:48;;;;;;;;;;;;;;;;;;5115745;27;20449;-77
2024/01/14 02:17:15;;;;;;;;;;;;;;;;;;5100305;28;20064;-78
2024/01/14 02:19:41;;;;;;;;;;;;;;;;;;5096243;28;19935;-78
2024/01/14 02:22:08;;;;;;;;;;;;;;;;;;5096622;28;20015;-77
2024/01/14 02:24:34;;;;;;;;;;;;;;;;;;5079407;28;19927;-81
2024/01/14 02:27:01;;;;;;;;;;;;;;;;;;5093454;28;19981;-78
2024/01/14 02:29:28;;;;;;;;;;;;;;;;;;5114884;27;19932;-78
2024/01/14 02:31:54;;;;;;;;;;;;;;;;;;5099202;27;19984;-77
2024/01/14 02:34:21;;;;;;;;;;;;;;;;;;5116957;27;19927;-77
2024/01/14 02:36:47;;;;;;;;;;;;;;;;;;5121083;27;19966;-76
2024/01/14 02:39:16;;;;;;;;;;;;;;;;;;5098885;28;19928;-78
2024/01/14 02:41:43;;;;;;;;;;;;;;;;;;5122350;27;19935;-77
2024/01/14 02:44:09;;;;;;;;;;;;;;;;;;5095493;28;20266;-77
2024/01/14 02:46:36;;;;;;;;;;;;;;;;;;5080091;28;20354;-76
2024/01/14 02:49:02;;;;;;;;;;;;;;;;;;5098464;28;20018;-78
2024/01/14 02:51:29;;;;;;;;;;;;;;;;;;5103902;27;19923;-77
2024/01/14 02:53:55;;;;;;;;;;;;;;;;;;5086114;28;19924;-78
2024/01/14 02:56:22;;;;;;;;;;;;;;;;;;5082794;27;20349;-78
2024/01/14 02:58:48;;;;;;;;;;;;;;;;;;5101142;27;19976;-76
2024/01/14 03:01:14;;;;;;;;;;;;;;;;;;5081468;28;19932;-77
2024/01/14 03:03:41;;;;;;;;;;;;;;;;;;5118505;27;19949;-74
2024/01/14 03:06:08;;;;;;;;;;;;;;;;;;5096263;28;19939;-77
2024/01/14 03:08:34;;;;;;;;;;;;;;;;;;5096559;28;19924;-77
2024/01/14 03:11:01;;;;;;;;;;;;;;;;;;5081590;28;20344;-77
2024/01/14 03:13:28;;;;;;;;;;;;;;;;;;5102317;27;19923;-77
2024/01/14 03:15:54;;;;;;;;;;;;;;;;;;5097697;28;19963;-78
2024/01/14 03:18:21;;;;;;;;;;;;;;;;;;5096676;28;20132;-77
2024/01/14 03:20:47;;;;;;;;;;;;;;;;;;5116946;28;19936;-77
2024/01/14 03:23:14;;;;;;;;;;;;;;;;;;5099340;28;19924;-77
2024/01/14 03:25:40;;;;;;;;;;;;;;;;;;5079883;28;20389;-77
2024/01/14 03:28:07;;;;;;;;;;;;;;;;;;5078381;28;20028;-78
2024/01/14 03:30:33;;;;;;;;;;;;;;;;;;5081018;28;20487;-81
2024/01/14 03:33:00;;;;;;;;;;;;;;;;;;5081511;28;20454;-76
2024/01/14 03:35:26;;;;;;;;;;;;;;;;;;5097587;28;19993;-76
2024/01/14 03:37:53;;;;;;;;;;;;;;;;;;5095862;28;19923;-78
2024/01/14 03:40:19;;;;;;;;;;;;;;;;;;5097472;28;19924;-78
2024/01/14 03:42:46;;;;;;;;;;;;;;;;;;5113239;28;19945;-78
2024/01/14 03:45:12;;;;;;;;;;;;;;;;;;5097532;28;20004;-76
2024/01/14 03:47:39;;;;;;;;;;;;;;;;;;5077340;28;19928;-78
2024/01/14 03:50:05;;;;;;;;;;;;;;;;;;5096441;28;19927;-75
2024/01/14 03:52:33;;;;;;;;;;;;;;;;;;5114379;28;19931;-78
2024/01/14 03:54:59;;;;;;;;;;;;;;;;;;5120095;27;19951;-79
2024/01/14 03:57:26;;;;;;;;;;;;;;;;;;5099850;28;19940;-76
2024/01/14 03:59:52;;;;;;;;;;;;;;;;;;5099126;28;19931;-78
2024/01/14 04:02:18;;;;;;;;;;;;;;;;;;5099890;28;19928;-77
2024/01/14 04:04:45;;;;;;;;;;;;;;;;;;5117843;27;20392;-77
2024/01/14 04:07:11;;;;;;;;;;;;;;;;;;5099191;28;19927;-76
2024/01/14 04:09:38;;;;;;;;;;;;;;;;;;5098710;28;19959;-76
2024/01/14 04:12:04;;;;;;;;;;;;;;;;;;5082712;28;20300;-77
2024/01/14 04:14:31;;;;;;;;;;;;;;;;;;5120935;27;19941;-77
2024/01/14 04:16:58;;;;;;;;;;;;;;;;;;5086866;27;20275;-78
2024/01/14 04:19:24;;;;;;;;;;;;;;;;;;5084273;27;19923;-76
2024/01/14 04:21:51;;;;;;;;;;;;;;;;;;5098695;28;19934;-75
2024/01/14 04:24:17;;;;;;;;;;;;;;;;;;5118171;27;19938;-78
2024/01/14 04:26:44;;;;;;;;;;;;;;;;;;5124363;27;19954;-76
2024/01/14 04:29:10;;;;;;;;;;;;;;;;;;5100938;28;20384;-78
2024/01/14 04:31:36;;;;;;;;;;;;;;;;;;5088967;27;19948;-77
2024/01/14 04:34:03;;;;;;;;;;;;;;;;;;5099697;28;19928;-78
2024/01/14 04:36:30;;;;;;;;;;;;;;;;;;5122395;27;19935;-77
2024/01/14 04:38:56;;;;;;;;;;;;;;;;;;5101663;27;19924;-78
2024/01/14 04:41:23;;;;;;;;;;;;;;;;;;5104501;28;19977;-79
2024/01/14 04:43:49;;;;;;;;;;;;;;;;;;5118585;27;19947;-78
2024/01/14 04:46:15;;;;;;;;;;;;;;;;;;5084274;28;19924;-79
2024/01/14 04:48:42;;;;;;;;;;;;;;;;;;5102561;27;19924;-76
2024/01/14 04:51:09;;;;;;;;;;;;;;;;;;5098638;27;20410;-80
2024/01/14 04:53:35;;;;;;;;;;;;;;;;;;5101321;27;20014;-78
2024/01/14 04:56:02;;;;;;;;;;;;;;;;;;5115773;27;19923;-77
2024/01/14 04:58:28;;;;;;;;;;;;;;;;;;5103460;27;19955;-75
2024/01/14 05:00:55;;;;;;;;;;;;;;;;;;5101221;27;20263;-78
2024/01/14 05:03:21;;;;;;;;;;;;;;;;;;5119988;27;19924;-78
2024/01/14 05:05:48;;;;;;;;;;;;;;;;;;5098748;28;19959;-77
2024/01/14 05:08:15;;;;;;;;;;;;;;;;;;5117930;27;19927;-79
2024/01/14 05:10:41;;;;;;;;;;;;;;;;;;5098499;28;19924;-78
2024/01/14 05:13:08;;;;;;;;;;;;;;;;;;5119011;27;19924;-77
2024/01/14 05:15:34;;;;;;;;;;;;;;;;;;5083636;27;19934;-76
2024/01/14 05:18:01;;;;;;;;;;;;;;;;;;5119067;27;19931;-79
2024/01/14 05:20:28;;;;;;;;;;;;;;;;;;5100006;27;19931;-78
2024/01/14 05:22:54;;;;;;;;;;;;;;;;;;5099885;27;20002;-76
2024/01/14 05:25:21;;;;;;;;;;;;;;;;;;5098129;28;20407;-78
2024/01/14 05:27:47;;;;;;;;;;;;;;;;;;5115066;27;19928;-77
2024/01/14 05:30:14;;;;;;;;;;;;;;;;;;5119946;27;20026;-78
2024/01/14 05:32:40;;;;;;;;;;;;;;;;;;5103093;27;19927;-79
2024/01/14 05:35:07;;;;;;;;;;;;;;;;;;5116850;27;19927;-79
2024/01/14 05:37:33;;;;;;;;;;;;;;;;;;5094772;28;19924;-79
2024/01/14 05:39:59;;;;;;;;;;;;;;;;;;5117395;27;20026;-79
2024/01/14 05:42:26;;;;;;;;;;;;;;;;;;5097879;28;19931;-80
2024/01/14 05:44:52;;;;;;;;;;;;;;;;;;5097971;27;20304;-81
2024/01/14 05:47:19;;;;;;;;;;;;;;;;;;5113428;27;20447;-80
2024/01/14 05:49:45;;;;;;;;;;;;;;;;;;5097350;27;19980;-78
2024/01/14 05:52:12;;;;;;;;;;;;;;;;;;5097123;28;19928;-77
2024/01/14 05:54:38;;;;;;;;;;;;;;;;;;5094480;28;19927;-76
2024/01/14 05:57:04;;;;;;;;;;;;;;;;;;5095419;27;19924;-79
2024/01/14 05:59:31;;;;;;;;;;;;;;;;;;5079983;28;20305;-79
2024/01/14 06:01:57;;;;;;;;;;;;;;;;;;5094354;28;20552;-77
2024/01/14 06:04:24;;;;;;;;;;;;;;;;;;5119273;27;19924;-78
2024/01/14 06:06:50;;;;;;;;;;;;;;;;;;5123669;27;19935;-79
2024/01/14 06:09:17;;;;;;;;;;;;;;;;;;5082642;27;19984;-78
2024/01/14 06:11:43;;;;;;;;;;;;;;;;;;5082742;28;19975;-79
2024/01/14 06:14:10;;;;;;;;;;;;;;;;;;5099931;27;20023;-78
2024/01/14 06:16:36;;;;;;;;;;;;;;;;;;5098673;27;19924;-79
2024/01/14 06:19:02;;;;;;;;;;;;;;;;;;5099624;27;19935;-78
2024/01/14 06:21:29;;;;;;;;;;;;;;;;;;5100301;28;19932;-80
2024/01/14 06:23:56;;;;;;;;;;;;;;;;;;5096633;28;20023;-77
2024/01/14 06:26:22;;;;;;;;;;;;;;;;;;5103804;27;19997;-79
2024/01/14 06:28:49;;;;;;;;;;;;;;;;;;5098029;28;19959;-78
2024/01/14 06:31:16;;;;;;;;;;;;;;;;;;5097596;28;19928;-79
2024/01/14 06:33:43;;;;;;;;;;;;;;;;;;5097386;28;19934;-78
2024/01/14 06:36:09;;;;;;;;;;;;;;;;;;5086954;27;19928;-79
2024/01/14 06:38:36;;;;;;;;;;;;;;;;;;5114962;27;19924;-80
2024/01/14 06:41:04;;;;;;;;;;;;;;;;;;5100890;28;20064;-79
2024/01/14 06:43:35;;;;;;;;;;;;;;;;;;5099662;27;19924;-80
2024/01/14 06:46:02;;;;;;;;;;;;;;;;;;5118714;27;19958;-80
2024/01/14 06:48:29;;;;;;;;;;;;;;;;;;5092924;28;20018;-80
2024/01/14 06:50:55;;;;;;;;;;;;;;;;;;5097636;27;19928;-79
2024/01/14 06:53:22;;;;;;;;;;;;;;;;;;5099326;27;19928;-79
2024/01/14 06:55:48;;;;;;;;;;;;;;;;;;5096031;28;20327;-80
2024/01/14 06:58:14;;;;;;;;;;;;;;;;;;5095232;28;19973;-79
2024/01/14 07:00:41;;;;;;;;;;;;;;;;;;5114803;28;19923;-80
2024/01/14 07:03:07;;;;;;;;;;;;;;;;;;5100966;27;20412;-80
2024/01/14 07:05:34;;;;;;;;;;;;;;;;;;5114273;28;19930;-78
2024/01/14 07:08:00;;;;;;;;;;;;;;;;;;5095914;28;19927;-77
2024/01/14 07:10:27;;;;;;;;;;;;;;;;;;5098030;28;19966;-79
2024/01/14 07:12:53;;;;;;;;;;;;;;;;;;5100922;27;19992;-77
2024/01/14 07:15:19;;;;;;;;;;;;;;;;;;5113298;28;19924;-77
2024/01/14 07:17:46;;;;;;;;;;;;;;;;;;5082014;27;19923;-77
2024/01/14 07:20:21;;;;;;;;;;;;;;;;;;5097676;28;19980;-77
2024/01/14 07:22:47;;;;;;;;;;;;;;;;;;5114158;28;20261;-78
2024/01/14 07:25:14;;;;;;;;;;;;;;;;;;5114173;27;19923;-78
2024/01/14 07:27:40;;;;;;;;;;;;;;;;;;5079120;28;19930;-78
2024/01/14 07:30:06;;;;;;;;;;;;;;;;;;5096132;28;19928;-79
2024/01/14 07:32:33;;;;;;;;;;;;;;;;;;5117611;27;20402;-79
2024/01/14 07:34:59;;;;;;;;;;;;;;;;;;5114586;28;19928;-78
2024/01/14 07:37:26;;;;;;;;;;;;;;;;;;5094408;28;20417;-80
2024/01/14 07:39:52;;;;;;;;;;;;;;;;;;5077687;28;19950;-78
2024/01/14 07:42:18;;;;;;;;;;;;;;;;;;5097149;28;19963;-77
2024/01/14 07:44:45;;;;;;;;;;;;;;;;;;5096503;28;20352;-78
2024/01/14 07:47:12;;;;;;;;;;;;;;;;;;5093918;28;19928;-80
2024/01/14 07:49:38;;;;;;;;;;;;;;;;;;5073215;28;19971;-76
2024/01/14 07:52:05;;;;;;;;;;;;;;;;;;5096264;28;19931;-80
2024/01/14 07:54:31;;;;;;;;;;;;;;;;;;5119025;28;19951;-79
2024/01/14 07:56:58;;;;;;;;;;;;;;;;;;5099138;28;20014;-79
2024/01/14 07:59:24;;;;;;;;;;;;;;;;;;5097091;28;19951;-77
2024/01/14 08:01:51;;;;;;;;;;;;;;;;;;5097736;28;19928;-76
2024/01/14 08:04:17;;;;;;;;;;;;;;;;;;5118710;28;19928;-77
2024/01/14 08:06:43;;;;;;;;;;;;;;;;;;5099668;28;19934;-75
2024/01/14 08:09:10;;;;;;;;;;;;;;;;;;5081505;28;20092;-77
2024/01/14 08:11:36;;;;;;;;;;;;;;;;;;5115811;28;19930;-77
2024/01/14 08:14:03;;;;;;;;;;;;;;;;;;5098748;28;20380;-77
2024/01/14 08:16:29;;;;;;;;;;;;;;;;;;5100320;28;20023;-77
2024/01/14 08:18:56;;;;;;;;;;;;;;;;;;5098353;28;19928;-77
2024/01/14 08:21:22;;;;;;;;;;;;;;;;;;5084231;28;19930;-77
2024/01/14 08:23:49;;;;;;;;;;;;;;;;;;5111430;28;19928;-77
2024/01/14 08:26:15;;;;;;;;;;;;;;;;;;5102185;28;20451;-78
2024/01/14 08:28:41;;;;;;;;;;;;;;;;;;5114499;28;20010;-78
2024/01/14 08:31:08;;;;;;;;;;;;;;;;;;5094242;28;19935;-78
2024/01/14 08:33:34;;;;;;;;;;;;;;;;;;5113075;28;19923;-78
2024/01/14 08:36:01;;;;;;;;;;;;;;;;;;5095743;28;19930;-77
2024/01/14 08:38:28;;;;;;;;;;;;;;;;;;5097731;28;19928;-82
2024/01/14 08:40:54;;;;;;;;;;;;;;;;;;5098918;27;19924;-82
2024/01/14 08:43:20;;;;;;;;;;;;;;;;;;5126134;27;19995;-84
2024/01/14 08:45:47;;;;;;;;;;;;;;;;;;5105724;28;20018;-78
2024/01/14 08:48:13;;;;;;;;;;;;;;;;;;5107362;27;19927;-83
2024/01/14 08:50:41;;;;;;;;;;;;;;;;;;5126707;27;19935;-78
2024/01/14 08:53:07;;;;;;;;;;;;;;;;;;5124716;27;19924;-81
2024/01/14 08:55:34;;;;;;;;;;;;;;;;;;5120760;27;20385;-80
2024/01/14 08:58:00;;;;;;;;;;;;;;;;;;5105461;27;20031;-81
2024/01/14 09:00:26;;;;;;;;;;;;;;;;;;5122330;27;19928;-80
2024/01/14 09:02:53;;;;;;;;;;;;;;;;;;5105340;28;19924;-81
2024/01/14 09:05:19;;;;;;;;;;;;;;;;;;5120400;28;19930;-83
2024/01/14 09:07:46;;;;;;;;;;;;;;;;;;5100367;28;19924;-82
2024/01/14 09:10:13;;;;;;;;;;;;;;;;;;5102949;28;19931;-81
2024/01/14 09:12:39;;;;;;;;;;;;;;;;;;5103132;28;19927;-81
2024/01/14 09:15:06;;;;;;;;;;;;;;;;;;5121798;27;20291;-76
2024/01/14 09:17:32;;;;;;;;;;;;;;;;;;5121590;27;20018;-80
2024/01/14 09:19:59;;;;;;;;;;;;;;;;;;5106240;28;19938;-83
2024/01/14 09:22:26;;;;;;;;;;;;;;;;;;5088396;28;19924;-81
2024/01/14 09:24:53;;;;;;;;;;;;;;;;;;5127345;27;19924;-81
2024/01/14 09:27:19;;;;;;;;;;;;;;;;;;5108878;27;20314;-81
2024/01/14 09:29:46;;;;;;;;;;;;;;;;;;5124570;27;19967;-82
2024/01/14 09:32:12;;;;;;;;;;;;;;;;;;5125948;27;20023;-80
2024/01/14 09:34:39;;;;;;;;;;;;;;;;;;5102752;28;19954;-79
2024/01/14 09:37:06;;;;;;;;;;;;;;;;;;5125365;27;19923;-82
2024/01/14 09:39:33;;;;;;;;;;;;;;;;;;5109836;28;19963;-81
2024/01/14 09:42:00;;;;;;;;;;;;;;;;;;5107526;27;19928;-82
2024/01/14 09:44:26;;;;;;;;;;;;;;;;;;5110466;27;19924;-80
2024/01/14 09:46:53;;;;;;;;;;;;;;;;;;5127317;27;19924;-79
2024/01/14 09:49:19;;;;;;;;;;;;;;;;;;5105484;27;20014;-82
2024/01/14 09:51:47;;;;;;;;;;;;;;;;;;5105984;28;19924;-80
2024/01/14 09:54:14;;;;;;;;;;;;;;;;;;5134165;27;19924;-80
2024/01/14 09:56:40;;;;;;;;;;;;;;;;;;5094919;28;19931;-81
2024/01/14 09:59:07;;;;;;;;;;;;;;;;;;5108713;27;19924;-82
2024/01/14 10:01:34;;;;;;;;;;;;;;;;;;5125614;27;19951;-78
2024/01/14 10:04:01;;;;;;;;;;;;;;;;;;5115581;28;19923;-80
2024/01/14 10:06:27;;;;;;;;;;;;;;;;;;5119717;27;19924;-83
2024/01/14 10:08:54;;;;;;;;;;;;;;;;;;5124548;27;19942;-82
2024/01/14 10:11:23;;;;;;;;;;;;;;;;;;5107252;28;19973;-81
2024/01/14 10:13:50;;;;;;;;;;;;;;;;;;5129588;27;19927;-79
2024/01/14 10:16:17;;;;;;;;;;;;;;;;;;5117333;27;19924;-81
2024/01/14 10:19:03;;;;;;;;;;;;;;;;;;5110170;27;19937;-79
2024/01/14 10:21:29;;;;;;;;;;;;;;;;;;5127934;27;19924;-82
2024/01/14 10:23:56;;;;;;;;;;;;;;;;;;5109203;27;20034;-82
2024/01/14 10:26:23;;;;;;;;;;;;;;;;;;5126873;27;19924;-81
2024/01/14 10:28:49;;;;;;;;;;;;;;;;;;5112532;27;19927;-81
2024/01/14 10:31:15;;;;;;;;;;;;;;;;;;5125391;27;19934;-81
2024/01/14 10:33:42;;;;;;;;;;;;;;;;;;5104387;28;19992;-78
2024/01/14 10:36:09;;;;;;;;;;;;;;;;;;5131302;27;19931;-81
2024/01/14 10:38:36;;;;;;;;;;;;;;;;;;5093059;28;20392;-79
2024/01/14 10:41:03;;;;;;;;;;;;;;;;;;5102582;28;19945;-79
2024/01/14 10:43:32;;;;;;;;;;;;;;;;;;5118754;27;20022;-80
2024/01/14 10:45:59;;;;;;;;;;;;;;;;;;5120575;27;19928;-80
2024/01/14 10:48:28;;;;;;;;;;;;;;;;;;5110124;28;19931;-82
2024/01/14 10:50:55;;;;;;;;;;;;;;;;;;5094330;28;19932;-80
2024/01/14 10:53:26;;;;;;;;;;;;;;;;;;5130031;27;19924;-80
2024/01/14 10:55:52;;;;;;;;;;;;;;;;;;5130889;27;19927;-81
2024/01/14 10:58:18;;;;;;;;;;;;;;;;;;5092464;28;19949;-83
2024/01/14 11:00:45;;;;;;;;;;;;;;;;;;5108091;28;19930;-81
2024/01/14 11:03:11;;;;;;;;;;;;;;;;;;5131120;27;20281;-81
2024/01/14 11:05:38;;;;;;;;;;;;;;;;;;5130581;28;19924;-81
2024/01/14 11:08:04;;;;;;;;;;;;;;;;;;5109953;28;19935;-82
2024/01/14 11:10:31;;;;;;;;;;;;;;;;;;5129820;27;19924;-82
2024/01/14 11:12:57;;;;;;;;;;;;;;;;;;5115142;28;19966;-81
2024/01/14 11:15:24;;;;;;;;;;;;;;;;;;5114399;28;19927;-80
2024/01/14 11:17:56;;;;;;;;;;;;;;;;;;5104257;28;19991;-82
2024/01/14 11:20:22;;;;;;;;;;;;;;;;;;5161410;22;19932;-81
2024/01/14 11:22:52;;;;;;;;;;;;;;;;;;5062612;28;19926;-79
2024/01/14 11:25:21;;;;;;;;;;;;;;;;;;5055442;28;19949;-82
2024/01/14 11:27:47;;;;;;;;;;;;;;;;;;4995388;28;19946;-79
2024/01/14 11:30:14;;;;;;;;;;;;;;;;;;5064192;28;20020;-82
2024/01/14 11:32:41;;;;;;;;;;;;;;;;;;4997120;28;19930;-81
2024/01/14 11:35:09;;;;;;;;;;;;;;;;;;4981259;28;19997;-79
2024/01/14 11:37:36;;;;;;;;;;;;;;;;;;5038686;28;19949;-82
2024/01/14 11:40:02;;;;;;;;;;;;;;;;;;5056054;28;19975;-80
2024/01/14 11:42:29;;;;;;;;;;;;;;;;;;4977151;28;20489;-81
2024/01/14 11:44:55;;;;;;;;;;;;;;;;;;4973444;28;19922;-79
2024/01/14 11:47:23;;;;;;;;;;;;;;;;;;5052984;28;20012;-83
2024/01/14 11:49:49;;;;;;;;;;;;;;;;;;4980180;28;19927;-81
2024/01/14 11:52:16;;;;;;;;;;;;;;;;;;4976696;28;19980;-80
2024/01/14 11:54:42;;;;;;;;;;;;;;;;;;5049743;28;19958;-79
2024/01/14 11:57:09;;;;;;;;;;;;;;;;;;5055767;28;19934;-81
2024/01/14 11:59:37;;;;;;;;;;;;;;;;;;5046310;28;19926;-82
2024/01/14 12:02:07;;;;;;;;;;;;;;;;;;4975124;28;20395;-82
2024/01/14 12:04:34;;;;;;;;;;;;;;;;;;5048182;28;20457;-81
2024/01/14 12:07:01;;;;;;;;;;;;;;;;;;4974960;28;19926;-82
2024/01/14 12:09:27;;;;;;;;;;;;;;;;;;5053776;28;19989;-82
2024/01/14 12:11:54;;;;;;;;;;;;;;;;;;5042606;28;19927;-82
2024/01/14 12:14:20;;;;;;;;;;;;;;;;;;4971585;28;19931;-81
2024/01/14 12:16:47;;;;;;;;;;;;;;;;;;4972406;28;19961;-82
2024/01/14 12:19:14;;;;;;;;;;;;;;;;;;4962774;28;19926;-79
2024/01/14 12:21:40;;;;;;;;;;;;;;;;;;4970639;28;20391;-81
2024/01/14 12:24:07;;;;;;;;;;;;;;;;;;4967599;28;20379;-79
2024/01/14 12:26:33;;;;;;;;;;;;;;;;;;5038426;28;20383;-79
2024/01/14 12:29:00;;;;;;;;;;;;;;;;;;5041597;28;20401;-81
2024/01/14 12:31:26;;;;;;;;;;;;;;;;;;5043379;28;19933;-79
2024/01/14 12:33:56;;;;;;;;;;;;;;;;;;5024787;28;19950;-81
2024/01/14 12:36:22;;;;;;;;;;;;;;;;;;4967877;28;20427;-81
2024/01/14 12:38:56;;;;;;;;;;;;;;;;;;4973390;28;20024;-81
2024/01/14 12:41:22;;;;;;;;;;;;;;;;;;4967861;28;19930;-81
2024/01/14 12:43:50;;;;;;;;;;;;;;;;;;4970849;28;19936;-82
2024/01/14 12:46:17;;;;;;;;;;;;;;;;;;5028467;28;19926;-80
2024/01/14 12:48:43;;;;;;;;;;;;;;;;;;5026403;28;20033;-82
2024/01/14 12:51:10;;;;;;;;;;;;;;;;;;5049655;28;19927;-81
2024/01/14 12:53:36;;;;;;;;;;;;;;;;;;4978778;28;19926;-80
2024/01/14 12:56:03;;;;;;;;;;;;;;;;;;5049129;28;19926;-80
2024/01/14 12:58:29;;;;;;;;;;;;;;;;;;5043940;28;20012;-83
2024/01/14 13:00:55;;;;;;;;;;;;;;;;;;4972194;28;20330;-77
2024/01/14 13:03:22;;;;;;;;;;;;;;;;;;4972440;28;19972;-80
2024/01/14 13:05:48;;;;;;;;;;;;;;;;;;5056146;28;19926;-79
2024/01/14 13:08:19;;;;;;;;;;;;;;;;;;5054800;28;20443;-80
2024/01/14 13:10:45;;;;;;;;;;;;;;;;;;4977625;28;19927;-80
2024/01/14 13:13:13;;;;;;;;;;;;;;;;;;5051338;28;19933;-79
2024/01/14 13:15:40;;;;;;;;;;;;;;;;;;5049446;28;20017;-79
2024/01/14 13:18:06;;;;;;;;;;;;;;;;;;4976960;28;19944;-79
2024/01/14 13:20:36;;;;;;;;;;;;;;;;;;5039458;28;19997;-83
2024/01/14 13:23:02;;;;;;;;;;;;;;;;;;4974453;28;19933;-79
2024/01/14 13:25:29;;;;;;;;;;;;;;;;;;4975641;28;19970;-82
2024/01/14 13:27:56;;;;;;;;;;;;;;;;;;5049132;28;19950;-79
2024/01/14 13:30:25;;;;;;;;;;;;;;;;;;5037638;28;19980;-80
2024/01/14 13:32:52;;;;;;;;;;;;;;;;;;4973985;28;19926;-80
2024/01/14 13:35:18;;;;;;;;;;;;;;;;;;4976350;28;20061;-83
2024/01/14 13:37:45;;;;;;;;;;;;;;;;;;4970539;28;19926;-80
2024/01/14 13:40:12;;;;;;;;;;;;;;;;;;5042730;28;20291;-81
2024/01/14 13:42:38;;;;;;;;;;;;;;;;;;5053240;28;19941;-81
2024/01/14 13:45:09;;;;;;;;;;;;;;;;;;5038179;28;19926;-81
2024/01/14 13:47:36;;;;;;;;;;;;;;;;;;5046752;28;20295;-81
2024/01/14 13:50:02;;;;;;;;;;;;;;;;;;4970195;28;19926;-81
2024/01/14 13:52:29;;;;;;;;;;;;;;;;;;4973557;28;19933;-79
2024/01/14 13:54:56;;;;;;;;;;;;;;;;;;5026865;28;19926;-82
2024/01/14 13:57:23;;;;;;;;;;;;;;;;;;4971641;28;19973;-80
2024/01/14 13:59:49;;;;;;;;;;;;;;;;;;5044894;28;19955;-81
2024/01/14 14:02:17;;;;;;;;;;;;;;;;;;4970077;28;19997;-80
2024/01/14 14:04:44;;;;;;;;;;;;;;;;;;5036941;28;19979;-79
2024/01/14 14:07:11;;;;;;;;;;;;;;;;;;5040989;28;20017;-81
2024/01/14 14:09:37;;;;;;;;;;;;;;;;;;4963908;28;19958;-80
2024/01/14 14:12:03;;;;;;;;;;;;;;;;;;5042079;28;19976;-80
2024/01/14 14:14:30;;;;;;;;;;;;;;;;;;5044305;28;19926;-79
2024/01/14 14:16:56;;;;;;;;;;;;;;;;;;5034509;28;19926;-80
2024/01/14 14:19:23;;;;;;;;;;;;;;;;;;5034560;28;19926;-81
2024/01/14 14:21:53;;;;;;;;;;;;;;;;;;5048084;28;19926;-81
2024/01/14 14:24:25;;;;;;;;;;;;;;;;;;4963081;28;19937;-79
2024/01/14 14:26:51;;;;;;;;;;;;;;;;;;5040360;28;19930;-81
2024/01/14 14:29:18;;;;;;;;;;;;;;;;;;5037837;28;19926;-81
2024/01/14 14:31:46;;;;;;;;;;;;;;;;;;5041831;28;19926;-79
2024/01/14 14:34:15;;;;;;;;;;;;;;;;;;5040563;28;20385;-80
2024/01/14 14:36:42;;;;;;;;;;;;;;;;;;5034593;28;19926;-81
2024/01/14 14:39:09;;;;;;;;;;;;;;;;;;5039575;28;19930;-81
2024/01/14 14:41:36;;;;;;;;;;;;;;;;;;5037339;28;20004;-79
2024/01/14 14:44:02;;;;;;;;;;;;;;;;;;5041784;28;19981;-79
2024/01/14 14:46:29;;;;;;;;;;;;;;;;;;5042572;28;19976;-82
2024/01/14 14:48:56;;;;;;;;;;;;;;;;;;4962097;28;19926;-80
2024/01/14 14:51:23;;;;;;;;;;;;;;;;;;5030592;28;19930;-79
2024/01/14 14:53:58;;;;;;;;;;;;;;;;;;5040289;28;19926;-82
2024/01/14 14:56:24;;;;;;;;;;;;;;;;;;5024212;28;19926;-81
2024/01/14 14:58:51;;;;;;;;;;;;;;;;;;5032401;28;19927;-81
2024/01/14 15:01:17;;;;;;;;;;;;;;;;;;5035459;28;19969;-81
2024/01/14 15:03:53;;;;;;;;;;;;;;;;;;4968144;28;19930;-81
2024/01/14 15:06:19;;;;;;;;;;;;;;;;;;5044672;28;19926;-82
2024/01/14 15:08:46;;;;;;;;;;;;;;;;;;4976004;28;19961;-81
2024/01/14 15:11:13;;;;;;;;;;;;;;;;;;5037731;28;19926;-79
2024/01/14 15:13:52;;;;;;;;;;;;;;;;;;5056246;28;19941;-80
2024/01/14 15:16:18;;;;;;;;;;;;;;;;;;4972547;28;19965;-80
2024/01/14 15:18:45;;;;;;;;;;;;;;;;;;5026252;28;20017;-79
2024/01/14 15:21:12;;;;;;;;;;;;;;;;;;5040769;28;19934;-83
2024/01/14 15:23:40;;;;;;;;;;;;;;;;;;5044134;28;19998;-81
2024/01/14 15:26:09;;;;;;;;;;;;;;;;;;5014593;28;22949;-80
2024/01/14 15:28:35;;;;;;;;;;;;;;;;;;4965888;28;19930;-78
2024/01/14 15:31:02;;;;;;;;;;;;;;;;;;5032961;28;19931;-81
2024/01/14 15:33:33;;;;;;;;;;;;;;;;;;5022176;28;20460;-80
2024/01/14 15:35:59;;;;;;;;;;;;;;;;;;5028003;28;19933;-81
2024/01/14 15:38:26;;;;;;;;;;;;;;;;;;5041332;28;19962;-79
2024/01/14 15:40:55;;;;;;;;;;;;;;;;;;5041081;28;19926;-82
2024/01/14 15:43:30;;;;;;;;;;;;;;;;;;5022515;28;20296;-80
2024/01/14 15:45:56;;;;;;;;;;;;;;;;;;5040841;28;20342;-81
2024/01/14 15:48:23;;;;;;;;;;;;;;;;;;5046483;28;19933;-82
2024/01/14 15:50:49;;;;;;;;;;;;;;;;;;4970425;28;19962;-80
2024/01/14 15:53:25;;;;;;;;;;;;;;;;;;5039625;28;19927;-81
2024/01/14 15:55:51;;;;;;;;;;;;;;;;;;4970647;28;19977;-80
2024/01/14 15:58:18;;;;;;;;;;;;;;;;;;5045435;28;19930;-81
2024/01/14 16:00:44;;;;;;;;;;;;;;;;;;5049055;28;20021;-82
2024/01/14 16:03:25;;;;;;;;;;;;;;;;;;5031185;28;20026;-81
2024/01/14 16:05:51;;;;;;;;;;;;;;;;;;5049306;28;19962;-82
2024/01/14 16:08:19;;;;;;;;;;;;;;;;;;5046834;28;19970;-79
2024/01/14 16:10:46;;;;;;;;;;;;;;;;;;4968409;28;20028;-83
2024/01/14 16:13:23;;;;;;;;;;;;;;;;;;4976128;28;19926;-80
2024/01/14 16:15:49;;;;;;;;;;;;;;;;;;4970708;28;19949;-80
2024/01/14 16:18:16;;;;;;;;;;;;;;;;;;4977198;28;19933;-79
2024/01/14 16:20:42;;;;;;;;;;;;;;;;;;5044636;28;19934;-83
2024/01/14 16:23:15;;;;;;;;;;;;;;;;;;5040725;28;19930;-81
2024/01/14 16:25:41;;;;;;;;;;;;;;;;;;5045342;28;19949;-80
2024/01/14 16:28:08;;;;;;;;;;;;;;;;;;5048582;28;19934;-83
2024/01/14 16:30:34;;;;;;;;;;;;;;;;;;4975719;28;19973;-81
2024/01/14 16:33:01;;;;;;;;;;;;;;;;;;4964563;28;20018;-82
2024/01/14 16:35:27;;;;;;;;;;;;;;;;;;4966414;28;19999;-81
2024/01/14 16:38:00;;;;;;;;;;;;;;;;;;5039222;28;19933;-81
2024/01/14 16:40:26;;;;;;;;;;;;;;;;;;5048881;28;20355;-80
2024/01/14 16:42:52;;;;;;;;;;;;;;;;;;4972203;28;19933;-83
2024/01/14 16:45:19;;;;;;;;;;;;;;;;;;4968273;28;20025;-82